sensor_id;sensor_type;location;lat;lon;timestamp;temperature;humidity
24146;DHT22;12308;50.948;4.706;2022-09-24T00:01:13;15.20;99.90
24146;DHT22;12308;50.948;4.706;2022-09-24T00:03:41;15.20;99.90
24146;DHT22;12308;50.948;4.706;2022-09-24T00:06:07;15.20;99.90
24146;DHT22;12308;50.948;4.706;2022-09-24T00:08:34;15.20;99.90
24146;DHT22;12308;50.948;4.706;2022-09-24T00:11:03;15.10;99.90
24146;DHT22;12308;50.948;4.706;2022-09-24T00:13:30;15.20;99.90
24146;DHT22;12308;50.948;4.706;2022-09-24T00:15:59;15.30;99.90
24146;DHT22;12308;50.948;4.706;2022-09-24T00:18:25;15.20;99.90
24146;DHT22;12308;50.948;4.706;2022-09-24T00:20:51;15.20;99.90
24146;DHT22;12308;50.948;4.706;2022-09-24T00:23:16;15.20;99.90
24146;DHT22;12308;50.948;4.706;2022-09-24T00:25:46;15.20;99.90
24146;DHT22;12308;50.948;4.706;2022-09-24T00:28:31;15.10;99.90
24146;DHT22;12308;50.948;4.706;2022-09-24T00:30:58;15.00;99.90
24146;DHT22;12308;50.948;4.706;2022-09-24T00:33:27;15.00;99.90
24146;DHT22;12308;50.948;4.706;2022-09-24T00:36:04;15.00;99.90
24146;DHT22;12308;50.948;4.706;2022-09-24T00:38:31;15.20;99.90
24146;DHT22;12308;50.948;4.706;2022-09-24T00:40:58;15.00;99.90
24146;DHT22;12308;50.948;4.706;2022-09-24T00:45:51;14.90;99.90
24146;DHT22;12308;50.948;4.706;2022-09-24T00:48:18;15.00;99.90
24146;DHT22;12308;50.948;4.706;2022-09-24T00:50:44;14.90;99.90
24146;DHT22;12308;50.948;4.706;2022-09-24T00:53:14;15.00;99.90
24146;DHT22;12308;50.948;4.706;2022-09-24T00:55:43;15.10;99.90
24146;DHT22;12308;50.948;4.706;2022-09-24T00:58:11;15.10;99.90
24146;DHT22;12308;50.948;4.706;2022-09-24T01:00:40;15.10;99.90
24146;DHT22;12308;50.948;4.706;2022-09-24T01:03:15;15.00;99.90
24146;DHT22;12308;50.948;4.706;2022-09-24T01:05:41;15.00;99.90
24146;DHT22;12308;50.948;4.706;2022-09-24T01:08:12;14.80;99.90
24146;DHT22;12308;50.948;4.706;2022-09-24T01:30:25;14.90;99.90
24146;DHT22;12308;50.948;4.706;2022-09-24T01:33:01;15.00;99.90
24146;DHT22;12308;50.948;4.706;2022-09-24T01:35:33;14.90;99.90
24146;DHT22;12308;50.948;4.706;2022-09-24T01:38:12;14.90;99.90
24146;DHT22;12308;50.948;4.706;2022-09-24T01:40:39;15.00;99.90
24146;DHT22;12308;50.948;4.706;2022-09-24T01:43:07;14.90;99.90
24146;DHT22;12308;50.948;4.706;2022-09-24T01:45:36;14.80;99.90
24146;DHT22;12308;50.948;4.706;2022-09-24T01:48:03;14.70;99.90
24146;DHT22;12308;50.948;4.706;2022-09-24T01:50:34;14.90;99.90
24146;DHT22;12308;50.948;4.706;2022-09-24T01:53:05;15.00;99.90
24146;DHT22;12308;50.948;4.706;2022-09-24T01:55:36;15.10;99.90
24146;DHT22;12308;50.948;4.706;2022-09-24T02:01:28;15.10;99.90
24146;DHT22;12308;50.948;4.706;2022-09-24T02:04:03;15.00;99.90
24146;DHT22;12308;50.948;4.706;2022-09-24T02:06:33;15.00;99.90
24146;DHT22;12308;50.948;4.706;2022-09-24T02:09:02;14.90;99.90
24146;DHT22;12308;50.948;4.706;2022-09-24T02:11:30;14.80;99.90
24146;DHT22;12308;50.948;4.706;2022-09-24T02:16:36;14.90;99.90
24146;DHT22;12308;50.948;4.706;2022-09-24T02:19:09;14.90;99.90
24146;DHT22;12308;50.948;4.706;2022-09-24T02:21:37;15.00;99.90
24146;DHT22;12308;50.948;4.706;2022-09-24T02:24:10;15.10;99.90
24146;DHT22;12308;50.948;4.706;2022-09-24T02:26:37;15.10;99.90
24146;DHT22;12308;50.948;4.706;2022-09-24T02:29:03;15.10;99.90
24146;DHT22;12308;50.948;4.706;2022-09-24T02:31:32;15.00;99.90
24146;DHT22;12308;50.948;4.706;2022-09-24T02:34:05;15.00;99.90
24146;DHT22;12308;50.948;4.706;2022-09-24T02:36:57;15.10;99.90
24146;DHT22;12308;50.948;4.706;2022-09-24T02:39:27;15.10;99.90
24146;DHT22;12308;50.948;4.706;2022-09-24T02:41:53;15.10;99.90
24146;DHT22;12308;50.948;4.706;2022-09-24T02:44:19;15.10;99.90
24146;DHT22;12308;50.948;4.706;2022-09-24T02:46:45;15.10;99.90
24146;DHT22;12308;50.948;4.706;2022-09-24T02:49:12;15.00;99.90
24146;DHT22;12308;50.948;4.706;2022-09-24T02:51:40;15.00;99.90
24146;DHT22;12308;50.948;4.706;2022-09-24T02:54:06;14.90;99.90
24146;DHT22;12308;50.948;4.706;2022-09-24T02:56:32;14.80;99.90
24146;DHT22;12308;50.948;4.706;2022-09-24T02:58:58;14.70;99.90
24146;DHT22;12308;50.948;4.706;2022-09-24T03:01:24;14.70;99.90
24146;DHT22;12308;50.948;4.706;2022-09-24T03:03:50;14.70;99.90
24146;DHT22;12308;50.948;4.706;2022-09-24T03:06:16;14.70;99.90
24146;DHT22;12308;50.948;4.706;2022-09-24T03:08:43;14.70;99.90
24146;DHT22;12308;50.948;4.706;2022-09-24T03:11:10;14.90;99.90
24146;DHT22;12308;50.948;4.706;2022-09-24T03:13:36;15.00;99.90
24146;DHT22;12308;50.948;4.706;2022-09-24T03:16:03;14.90;99.90
24146;DHT22;12308;50.948;4.706;2022-09-24T03:18:29;14.90;99.90
24146;DHT22;12308;50.948;4.706;2022-09-24T03:21:00;14.90;99.90
24146;DHT22;12308;50.948;4.706;2022-09-24T03:23:26;14.70;99.90
24146;DHT22;12308;50.948;4.706;2022-09-24T03:25:52;14.70;99.90
24146;DHT22;12308;50.948;4.706;2022-09-24T03:28:18;14.60;99.90
24146;DHT22;12308;50.948;4.706;2022-09-24T03:30:44;14.60;99.90
24146;DHT22;12308;50.948;4.706;2022-09-24T03:33:39;14.70;99.90
24146;DHT22;12308;50.948;4.706;2022-09-24T03:36:13;14.70;99.90
24146;DHT22;12308;50.948;4.706;2022-09-24T03:38:41;14.70;99.90
24146;DHT22;12308;50.948;4.706;2022-09-24T03:41:08;14.70;99.90
24146;DHT22;12308;50.948;4.706;2022-09-24T03:43:34;14.70;99.90
24146;DHT22;12308;50.948;4.706;2022-09-24T03:46:01;14.70;99.90
24146;DHT22;12308;50.948;4.706;2022-09-24T03:48:27;14.70;99.90
24146;DHT22;12308;50.948;4.706;2022-09-24T03:50:54;14.70;99.90
24146;DHT22;12308;50.948;4.706;2022-09-24T03:53:21;14.60;99.90
24146;DHT22;12308;50.948;4.706;2022-09-24T03:55:56;14.70;99.90
24146;DHT22;12308;50.948;4.706;2022-09-24T03:58:22;14.80;99.90
24146;DHT22;12308;50.948;4.706;2022-09-24T04:00:51;14.70;99.90
24146;DHT22;12308;50.948;4.706;2022-09-24T04:03:17;14.50;99.90
24146;DHT22;12308;50.948;4.706;2022-09-24T04:05:43;14.50;99.90
24146;DHT22;12308;50.948;4.706;2022-09-24T04:08:08;14.50;99.90
24146;DHT22;12308;50.948;4.706;2022-09-24T04:10:34;14.40;99.90
24146;DHT22;12308;50.948;4.706;2022-09-24T04:13:00;14.40;99.90
24146;DHT22;12308;50.948;4.706;2022-09-24T04:15:26;14.30;99.90
24146;DHT22;12308;50.948;4.706;2022-09-24T04:17:53;14.30;99.90
24146;DHT22;12308;50.948;4.706;2022-09-24T04:20:20;14.40;99.90
24146;DHT22;12308;50.948;4.706;2022-09-24T04:22:50;14.60;99.90
24146;DHT22;12308;50.948;4.706;2022-09-24T04:25:17;14.60;99.90
24146;DHT22;12308;50.948;4.706;2022-09-24T04:27:51;14.50;99.90
24146;DHT22;12308;50.948;4.706;2022-09-24T04:30:17;14.40;99.90
24146;DHT22;12308;50.948;4.706;2022-09-24T04:32:42;14.30;99.90
24146;DHT22;12308;50.948;4.706;2022-09-24T04:35:09;14.40;99.90
24146;DHT22;12308;50.948;4.706;2022-09-24T04:37:35;14.50;99.90
24146;DHT22;12308;50.948;4.706;2022-09-24T04:40:03;14.50;99.90
24146;DHT22;12308;50.948;4.706;2022-09-24T04:42:29;14.40;99.90
24146;DHT22;12308;50.948;4.706;2022-09-24T04:44:55;14.40;99.90
24146;DHT22;12308;50.948;4.706;2022-09-24T04:47:20;14.30;99.90
24146;DHT22;12308;50.948;4.706;2022-09-24T04:49:48;14.40;99.90
24146;DHT22;12308;50.948;4.706;2022-09-24T04:52:14;14.40;99.90
24146;DHT22;12308;50.948;4.706;2022-09-24T04:54:41;14.40;99.90
24146;DHT22;12308;50.948;4.706;2022-09-24T04:57:15;14.40;99.90
24146;DHT22;12308;50.948;4.706;2022-09-24T04:59:42;14.40;99.90
24146;DHT22;12308;50.948;4.706;2022-09-24T05:02:08;14.40;99.90
24146;DHT22;12308;50.948;4.706;2022-09-24T05:04:35;14.40;99.90
24146;DHT22;12308;50.948;4.706;2022-09-24T05:07:02;14.50;99.90
24146;DHT22;12308;50.948;4.706;2022-09-24T05:09:28;14.40;99.90
24146;DHT22;12308;50.948;4.706;2022-09-24T05:11:57;14.50;99.90
24146;DHT22;12308;50.948;4.706;2022-09-24T05:14:23;14.40;99.90
24146;DHT22;12308;50.948;4.706;2022-09-24T05:16:49;14.40;99.90
24146;DHT22;12308;50.948;4.706;2022-09-24T05:19:15;14.30;99.90
24146;DHT22;12308;50.948;4.706;2022-09-24T05:21:40;14.30;99.90
24146;DHT22;12308;50.948;4.706;2022-09-24T05:24:06;14.30;99.90
24146;DHT22;12308;50.948;4.706;2022-09-24T05:26:32;14.30;99.90
24146;DHT22;12308;50.948;4.706;2022-09-24T05:29:17;14.40;99.90
24146;DHT22;12308;50.948;4.706;2022-09-24T05:31:43;14.30;99.90
24146;DHT22;12308;50.948;4.706;2022-09-24T05:34:08;14.40;99.90
24146;DHT22;12308;50.948;4.706;2022-09-24T05:36:34;14.30;99.90
24146;DHT22;12308;50.948;4.706;2022-09-24T05:39:00;14.30;99.90
24146;DHT22;12308;50.948;4.706;2022-09-24T05:41:26;14.40;99.90
24146;DHT22;12308;50.948;4.706;2022-09-24T05:43:51;14.40;99.90
24146;DHT22;12308;50.948;4.706;2022-09-24T05:46:17;14.40;99.90
24146;DHT22;12308;50.948;4.706;2022-09-24T05:48:43;14.50;99.90
24146;DHT22;12308;50.948;4.706;2022-09-24T05:51:08;14.60;99.90
24146;DHT22;12308;50.948;4.706;2022-09-24T05:53:34;14.60;99.90
24146;DHT22;12308;50.948;4.706;2022-09-24T05:56:00;14.50;99.90
24146;DHT22;12308;50.948;4.706;2022-09-24T05:58:26;14.40;99.90
24146;DHT22;12308;50.948;4.706;2022-09-24T06:00:51;14.40;99.90
24146;DHT22;12308;50.948;4.706;2022-09-24T06:03:18;14.40;99.90
24146;DHT22;12308;50.948;4.706;2022-09-24T06:05:45;14.40;99.90
24146;DHT22;12308;50.948;4.706;2022-09-24T06:08:12;14.40;99.90
24146;DHT22;12308;50.948;4.706;2022-09-24T06:10:40;14.40;99.90
24146;DHT22;12308;50.948;4.706;2022-09-24T06:13:07;14.40;99.90
24146;DHT22;12308;50.948;4.706;2022-09-24T06:15:33;14.40;99.90
24146;DHT22;12308;50.948;4.706;2022-09-24T06:18:00;14.50;99.90
24146;DHT22;12308;50.948;4.706;2022-09-24T06:20:26;14.30;99.90
24146;DHT22;12308;50.948;4.706;2022-09-24T06:22:55;14.30;99.90
24146;DHT22;12308;50.948;4.706;2022-09-24T06:25:23;14.30;99.90
24146;DHT22;12308;50.948;4.706;2022-09-24T06:27:56;14.40;99.90
24146;DHT22;12308;50.948;4.706;2022-09-24T06:30:33;14.40;99.90
24146;DHT22;12308;50.948;4.706;2022-09-24T06:33:06;14.40;99.90
24146;DHT22;12308;50.948;4.706;2022-09-24T06:35:36;14.40;99.90
24146;DHT22;12308;50.948;4.706;2022-09-24T06:38:03;14.50;99.90
24146;DHT22;12308;50.948;4.706;2022-09-24T06:40:29;14.60;99.90
24146;DHT22;12308;50.948;4.706;2022-09-24T06:42:55;14.70;99.90
24146;DHT22;12308;50.948;4.706;2022-09-24T06:45:22;14.50;99.90
24146;DHT22;12308;50.948;4.706;2022-09-24T06:47:56;14.50;99.90
24146;DHT22;12308;50.948;4.706;2022-09-24T06:50:22;14.60;99.90
24146;DHT22;12308;50.948;4.706;2022-09-24T06:52:48;14.60;99.90
24146;DHT22;12308;50.948;4.706;2022-09-24T06:55:15;14.80;99.90
24146;DHT22;12308;50.948;4.706;2022-09-24T06:57:41;14.70;99.90
24146;DHT22;12308;50.948;4.706;2022-09-24T07:00:07;14.70;99.90
24146;DHT22;12308;50.948;4.706;2022-09-24T07:02:33;14.60;99.90
24146;DHT22;12308;50.948;4.706;2022-09-24T07:04:59;14.60;99.90
24146;DHT22;12308;50.948;4.706;2022-09-24T07:07:25;14.70;99.90
24146;DHT22;12308;50.948;4.706;2022-09-24T07:10:02;14.80;99.90
24146;DHT22;12308;50.948;4.706;2022-09-24T07:12:30;14.80;99.90
24146;DHT22;12308;50.948;4.706;2022-09-24T07:14:56;14.70;99.90
24146;DHT22;12308;50.948;4.706;2022-09-24T07:17:23;14.70;99.90
24146;DHT22;12308;50.948;4.706;2022-09-24T07:19:49;14.60;99.90
24146;DHT22;12308;50.948;4.706;2022-09-24T07:22:15;14.70;99.90
24146;DHT22;12308;50.948;4.706;2022-09-24T07:24:41;14.80;99.90
24146;DHT22;12308;50.948;4.706;2022-09-24T07:27:06;14.80;99.90
24146;DHT22;12308;50.948;4.706;2022-09-24T07:29:33;14.80;99.90
24146;DHT22;12308;50.948;4.706;2022-09-24T07:31:59;14.80;99.90
24146;DHT22;12308;50.948;4.706;2022-09-24T07:34:25;14.90;99.90
24146;DHT22;12308;50.948;4.706;2022-09-24T07:36:50;15.00;99.90
24146;DHT22;12308;50.948;4.706;2022-09-24T07:39:16;15.10;99.90
24146;DHT22;12308;50.948;4.706;2022-09-24T07:41:42;15.10;99.90
24146;DHT22;12308;50.948;4.706;2022-09-24T07:44:08;15.20;99.90
24146;DHT22;12308;50.948;4.706;2022-09-24T07:46:34;15.10;99.90
24146;DHT22;12308;50.948;4.706;2022-09-24T07:49:00;15.00;99.90
24146;DHT22;12308;50.948;4.706;2022-09-24T07:51:27;15.00;99.90
24146;DHT22;12308;50.948;4.706;2022-09-24T07:53:56;15.10;99.90
24146;DHT22;12308;50.948;4.706;2022-09-24T07:56:23;15.00;99.90
24146;DHT22;12308;50.948;4.706;2022-09-24T07:58:50;15.10;99.90
24146;DHT22;12308;50.948;4.706;2022-09-24T08:01:17;15.20;99.90
24146;DHT22;12308;50.948;4.706;2022-09-24T08:03:43;15.10;99.90
24146;DHT22;12308;50.948;4.706;2022-09-24T08:06:10;15.10;99.90
24146;DHT22;12308;50.948;4.706;2022-09-24T08:08:36;15.00;99.90
24146;DHT22;12308;50.948;4.706;2022-09-24T08:11:07;14.90;99.90
24146;DHT22;12308;50.948;4.706;2022-09-24T08:13:33;14.90;99.90
24146;DHT22;12308;50.948;4.706;2022-09-24T08:16:00;14.90;99.90
24146;DHT22;12308;50.948;4.706;2022-09-24T08:18:27;14.90;99.90
24146;DHT22;12308;50.948;4.706;2022-09-24T08:20:54;14.90;99.90
24146;DHT22;12308;50.948;4.706;2022-09-24T08:23:19;14.90;99.90
24146;DHT22;12308;50.948;4.706;2022-09-24T08:25:48;15.10;99.90
24146;DHT22;12308;50.948;4.706;2022-09-24T08:28:14;15.20;99.90
24146;DHT22;12308;50.948;4.706;2022-09-24T08:30:44;15.30;99.90
24146;DHT22;12308;50.948;4.706;2022-09-24T08:33:11;15.30;99.90
24146;DHT22;12308;50.948;4.706;2022-09-24T08:35:37;15.30;99.90
24146;DHT22;12308;50.948;4.706;2022-09-24T08:38:06;15.30;99.90
24146;DHT22;12308;50.948;4.706;2022-09-24T08:40:38;15.40;99.90
24146;DHT22;12308;50.948;4.706;2022-09-24T08:45:56;15.60;99.90
24146;DHT22;12308;50.948;4.706;2022-09-24T08:48:44;15.50;99.90
24146;DHT22;12308;50.948;4.706;2022-09-24T08:51:15;15.60;99.90
24146;DHT22;12308;50.948;4.706;2022-09-24T08:53:56;15.60;99.90
24146;DHT22;12308;50.948;4.706;2022-09-24T08:56:26;15.60;99.90
24146;DHT22;12308;50.948;4.706;2022-09-24T09:01:38;15.50;99.90
24146;DHT22;12308;50.948;4.706;2022-09-24T09:10:23;15.80;99.90
24146;DHT22;12308;50.948;4.706;2022-09-24T09:15:43;16.00;99.90
24146;DHT22;12308;50.948;4.706;2022-09-24T09:18:39;16.20;99.90
24146;DHT22;12308;50.948;4.706;2022-09-24T09:23:53;16.20;99.90
24146;DHT22;12308;50.948;4.706;2022-09-24T09:26:21;16.30;99.90
24146;DHT22;12308;50.948;4.706;2022-09-24T09:28:47;16.30;99.90
24146;DHT22;12308;50.948;4.706;2022-09-24T09:42:49;16.50;99.90
24146;DHT22;12308;50.948;4.706;2022-09-24T09:45:33;16.50;99.90
24146;DHT22;12308;50.948;4.706;2022-09-24T09:48:00;16.40;99.90
24146;DHT22;12308;50.948;4.706;2022-09-24T09:50:40;16.40;99.90
24146;DHT22;12308;50.948;4.706;2022-09-24T09:53:21;16.30;99.90
24146;DHT22;12308;50.948;4.706;2022-09-24T09:55:55;16.20;99.90
24146;DHT22;12308;50.948;4.706;2022-09-24T09:58:24;16.20;99.90
24146;DHT22;12308;50.948;4.706;2022-09-24T10:00:51;16.10;99.90
24146;DHT22;12308;50.948;4.706;2022-09-24T10:06:30;16.10;99.90
24146;DHT22;12308;50.948;4.706;2022-09-24T10:09:15;16.00;99.90
24146;DHT22;12308;50.948;4.706;2022-09-24T10:11:41;16.10;99.90
24146;DHT22;12308;50.948;4.706;2022-09-24T10:14:13;16.00;99.90
24146;DHT22;12308;50.948;4.706;2022-09-24T10:16:44;16.10;99.90
24146;DHT22;12308;50.948;4.706;2022-09-24T10:19:33;16.10;99.90
24146;DHT22;12308;50.948;4.706;2022-09-24T10:22:18;16.00;99.90
24146;DHT22;12308;50.948;4.706;2022-09-24T10:24:45;16.00;99.90
24146;DHT22;12308;50.948;4.706;2022-09-24T10:27:12;15.90;99.90
24146;DHT22;12308;50.948;4.706;2022-09-24T10:29:39;16.00;99.90
24146;DHT22;12308;50.948;4.706;2022-09-24T10:32:25;16.00;99.90
24146;DHT22;12308;50.948;4.706;2022-09-24T10:35:02;16.00;99.90
24146;DHT22;12308;50.948;4.706;2022-09-24T10:37:30;16.20;99.90
24146;DHT22;12308;50.948;4.706;2022-09-24T10:40:01;16.10;99.90
24146;DHT22;12308;50.948;4.706;2022-09-24T10:42:29;16.10;99.90
24146;DHT22;12308;50.948;4.706;2022-09-24T10:44:58;16.10;99.90
24146;DHT22;12308;50.948;4.706;2022-09-24T10:47:41;16.10;99.90
24146;DHT22;12308;50.948;4.706;2022-09-24T10:50:35;16.10;99.90
24146;DHT22;12308;50.948;4.706;2022-09-24T10:53:07;16.10;99.90
24146;DHT22;12308;50.948;4.706;2022-09-24T11:06:43;15.70;99.90
24146;DHT22;12308;50.948;4.706;2022-09-24T11:10:03;15.70;99.90
24146;DHT22;12308;50.948;4.706;2022-09-24T11:20:49;15.50;99.90
24146;DHT22;12308;50.948;4.706;2022-09-24T11:23:45;15.60;99.90
24146;DHT22;12308;50.948;4.706;2022-09-24T11:26:39;15.70;99.90
24146;DHT22;12308;50.948;4.706;2022-09-24T11:34:57;15.80;99.90
24146;DHT22;12308;50.948;4.706;2022-09-24T11:37:48;15.80;99.90
24146;DHT22;12308;50.948;4.706;2022-09-24T11:45:37;15.70;99.90
24146;DHT22;12308;50.948;4.706;2022-09-24T11:56:00;15.60;99.90
24146;DHT22;12308;50.948;4.706;2022-09-24T11:58:37;15.60;99.90
24146;DHT22;12308;50.948;4.706;2022-09-24T12:04:02;15.70;99.90
24146;DHT22;12308;50.948;4.706;2022-09-24T12:06:34;15.80;99.90
24146;DHT22;12308;50.948;4.706;2022-09-24T12:09:29;15.90;99.90
24146;DHT22;12308;50.948;4.706;2022-09-24T12:12:12;15.80;99.90
24146;DHT22;12308;50.948;4.706;2022-09-24T12:14:59;15.80;99.90
24146;DHT22;12308;50.948;4.706;2022-09-24T12:18:06;15.90;99.90
24146;DHT22;12308;50.948;4.706;2022-09-24T12:20:50;15.90;99.90
24146;DHT22;12308;50.948;4.706;2022-09-24T12:23:22;16.00;99.90
24146;DHT22;12308;50.948;4.706;2022-09-24T12:25:49;16.00;99.90
24146;DHT22;12308;50.948;4.706;2022-09-24T12:28:19;15.70;99.90
24146;DHT22;12308;50.948;4.706;2022-09-24T12:31:14;15.70;99.90
24146;DHT22;12308;50.948;4.706;2022-09-24T12:34:13;15.70;99.90
24146;DHT22;12308;50.948;4.706;2022-09-24T12:36:52;15.70;99.90
24146;DHT22;12308;50.948;4.706;2022-09-24T12:39:24;15.70;99.90
24146;DHT22;12308;50.948;4.706;2022-09-24T12:42:00;15.60;99.90
24146;DHT22;12308;50.948;4.706;2022-09-24T12:44:36;15.50;99.90
24146;DHT22;12308;50.948;4.706;2022-09-24T12:47:04;15.40;99.90
24146;DHT22;12308;50.948;4.706;2022-09-24T12:49:38;15.40;99.90
24146;DHT22;12308;50.948;4.706;2022-09-24T12:52:20;15.50;99.90
24146;DHT22;12308;50.948;4.706;2022-09-24T12:54:54;15.40;99.90
24146;DHT22;12308;50.948;4.706;2022-09-24T12:57:25;15.30;99.90
24146;DHT22;12308;50.948;4.706;2022-09-24T12:59:53;15.20;99.90
24146;DHT22;12308;50.948;4.706;2022-09-24T13:05:15;15.10;99.90
24146;DHT22;12308;50.948;4.706;2022-09-24T13:07:42;15.20;99.90
24146;DHT22;12308;50.948;4.706;2022-09-24T13:10:20;15.10;99.90
24146;DHT22;12308;50.948;4.706;2022-09-24T13:12:47;15.10;99.90
24146;DHT22;12308;50.948;4.706;2022-09-24T13:18:05;15.10;99.90
24146;DHT22;12308;50.948;4.706;2022-09-24T13:20:41;15.20;99.90
24146;DHT22;12308;50.948;4.706;2022-09-24T13:23:27;15.30;99.90
24146;DHT22;12308;50.948;4.706;2022-09-24T13:26:01;15.40;99.90
24146;DHT22;12308;50.948;4.706;2022-09-24T13:28:58;15.50;99.90
24146;DHT22;12308;50.948;4.706;2022-09-24T13:36:41;15.50;99.90
24146;DHT22;12308;50.948;4.706;2022-09-24T13:41:41;15.40;99.90
24146;DHT22;12308;50.948;4.706;2022-09-24T13:47:13;15.50;99.90
24146;DHT22;12308;50.948;4.706;2022-09-24T13:49:45;15.50;99.90
24146;DHT22;12308;50.948;4.706;2022-09-24T13:52:33;15.50;99.90
24146;DHT22;12308;50.948;4.706;2022-09-24T13:55:09;15.60;99.90
24146;DHT22;12308;50.948;4.706;2022-09-24T13:57:44;15.60;99.90
24146;DHT22;12308;50.948;4.706;2022-09-24T14:02:37;15.70;99.90
24146;DHT22;12308;50.948;4.706;2022-09-24T14:05:06;15.50;99.90
24146;DHT22;12308;50.948;4.706;2022-09-24T14:07:33;15.60;99.90
24146;DHT22;12308;50.948;4.706;2022-09-24T14:10:06;15.60;99.90
24146;DHT22;12308;50.948;4.706;2022-09-24T14:12:32;15.60;99.90
24146;DHT22;12308;50.948;4.706;2022-09-24T14:14:58;15.60;99.90
24146;DHT22;12308;50.948;4.706;2022-09-24T14:17:24;15.70;99.90
24146;DHT22;12308;50.948;4.706;2022-09-24T14:19:56;15.70;99.90
24146;DHT22;12308;50.948;4.706;2022-09-24T14:22:29;15.70;99.90
24146;DHT22;12308;50.948;4.706;2022-09-24T14:25:13;15.70;99.90
24146;DHT22;12308;50.948;4.706;2022-09-24T14:27:43;15.60;99.90
24146;DHT22;12308;50.948;4.706;2022-09-24T14:30:22;15.60;99.90
24146;DHT22;12308;50.948;4.706;2022-09-24T14:32:55;15.60;99.90
24146;DHT22;12308;50.948;4.706;2022-09-24T14:35:33;15.50;99.90
24146;DHT22;12308;50.948;4.706;2022-09-24T14:38:05;15.50;99.90
24146;DHT22;12308;50.948;4.706;2022-09-24T14:43:33;15.40;99.90
24146;DHT22;12308;50.948;4.706;2022-09-24T14:46:11;15.40;99.90
24146;DHT22;12308;50.948;4.706;2022-09-24T14:48:38;15.30;99.90
24146;DHT22;12308;50.948;4.706;2022-09-24T14:51:26;15.30;99.90
24146;DHT22;12308;50.948;4.706;2022-09-24T14:54:21;15.30;99.90
24146;DHT22;12308;50.948;4.706;2022-09-24T14:56:48;15.20;99.90
24146;DHT22;12308;50.948;4.706;2022-09-24T14:59:15;15.40;99.90
24146;DHT22;12308;50.948;4.706;2022-09-24T15:02:08;15.60;99.90
24146;DHT22;12308;50.948;4.706;2022-09-24T15:04:42;15.70;99.90
24146;DHT22;12308;50.948;4.706;2022-09-24T15:07:36;15.50;99.90
24146;DHT22;12308;50.948;4.706;2022-09-24T15:10:04;15.40;99.90
24146;DHT22;12308;50.948;4.706;2022-09-24T15:12:31;15.30;99.90
24146;DHT22;12308;50.948;4.706;2022-09-24T15:14:58;15.30;99.90
24146;DHT22;12308;50.948;4.706;2022-09-24T15:17:32;15.20;99.90
24146;DHT22;12308;50.948;4.706;2022-09-24T15:19:58;15.20;99.90
24146;DHT22;12308;50.948;4.706;2022-09-24T15:22:25;15.30;99.90
24146;DHT22;12308;50.948;4.706;2022-09-24T15:24:52;15.30;99.90
24146;DHT22;12308;50.948;4.706;2022-09-24T15:27:24;15.40;99.90
24146;DHT22;12308;50.948;4.706;2022-09-24T15:29:55;15.50;99.90
24146;DHT22;12308;50.948;4.706;2022-09-24T15:32:25;15.60;99.90
24146;DHT22;12308;50.948;4.706;2022-09-24T15:34:51;15.70;99.90
24146;DHT22;12308;50.948;4.706;2022-09-24T15:37:19;15.80;99.90
24146;DHT22;12308;50.948;4.706;2022-09-24T15:39:46;15.50;99.90
24146;DHT22;12308;50.948;4.706;2022-09-24T15:42:23;15.40;99.90
24146;DHT22;12308;50.948;4.706;2022-09-24T15:44:49;15.50;99.90
24146;DHT22;12308;50.948;4.706;2022-09-24T15:47:16;15.60;99.90
24146;DHT22;12308;50.948;4.706;2022-09-24T15:49:42;15.80;99.90
24146;DHT22;12308;50.948;4.706;2022-09-24T15:52:21;15.70;99.90
24146;DHT22;12308;50.948;4.706;2022-09-24T15:54:55;15.50;99.90
24146;DHT22;12308;50.948;4.706;2022-09-24T15:57:22;15.40;99.90
24146;DHT22;12308;50.948;4.706;2022-09-24T15:59:48;15.20;99.90
24146;DHT22;12308;50.948;4.706;2022-09-24T16:02:21;15.00;99.90
24146;DHT22;12308;50.948;4.706;2022-09-24T16:04:47;15.20;99.90
24146;DHT22;12308;50.948;4.706;2022-09-24T16:07:13;15.30;99.90
24146;DHT22;12308;50.948;4.706;2022-09-24T16:09:39;15.20;99.90
24146;DHT22;12308;50.948;4.706;2022-09-24T16:12:05;15.20;99.90
24146;DHT22;12308;50.948;4.706;2022-09-24T16:14:31;15.30;99.90
24146;DHT22;12308;50.948;4.706;2022-09-24T16:16:57;15.30;99.90
24146;DHT22;12308;50.948;4.706;2022-09-24T16:19:22;15.40;99.90
24146;DHT22;12308;50.948;4.706;2022-09-24T16:21:48;15.50;99.90
24146;DHT22;12308;50.948;4.706;2022-09-24T16:24:16;15.50;99.90
24146;DHT22;12308;50.948;4.706;2022-09-24T16:26:42;15.50;99.90
24146;DHT22;12308;50.948;4.706;2022-09-24T16:29:08;15.60;99.90
24146;DHT22;12308;50.948;4.706;2022-09-24T16:31:36;15.80;99.90
24146;DHT22;12308;50.948;4.706;2022-09-24T16:34:03;15.90;99.90
24146;DHT22;12308;50.948;4.706;2022-09-24T16:36:28;15.90;99.90
24146;DHT22;12308;50.948;4.706;2022-09-24T16:38:56;15.70;99.90
24146;DHT22;12308;50.948;4.706;2022-09-24T16:41:21;15.80;99.90
24146;DHT22;12308;50.948;4.706;2022-09-24T16:43:47;15.50;99.90
24146;DHT22;12308;50.948;4.706;2022-09-24T16:46:13;15.50;99.90
24146;DHT22;12308;50.948;4.706;2022-09-24T16:48:38;15.60;99.90
24146;DHT22;12308;50.948;4.706;2022-09-24T16:51:07;15.50;99.90
24146;DHT22;12308;50.948;4.706;2022-09-24T16:53:34;15.60;99.90
24146;DHT22;12308;50.948;4.706;2022-09-24T16:56:09;15.60;99.90
24146;DHT22;12308;50.948;4.706;2022-09-24T16:58:35;15.70;99.90
24146;DHT22;12308;50.948;4.706;2022-09-24T17:01:05;15.60;99.90
24146;DHT22;12308;50.948;4.706;2022-09-24T17:03:33;15.70;99.90
24146;DHT22;12308;50.948;4.706;2022-09-24T17:05:59;15.80;99.90
24146;DHT22;12308;50.948;4.706;2022-09-24T17:08:24;15.50;99.90
24146;DHT22;12308;50.948;4.706;2022-09-24T17:11:10;15.60;99.90
24146;DHT22;12308;50.948;4.706;2022-09-24T17:13:35;15.70;99.90
24146;DHT22;12308;50.948;4.706;2022-09-24T17:16:01;15.80;99.90
24146;DHT22;12308;50.948;4.706;2022-09-24T17:18:27;15.90;99.90
24146;DHT22;12308;50.948;4.706;2022-09-24T17:21:04;15.50;99.90
24146;DHT22;12308;50.948;4.706;2022-09-24T17:23:30;15.50;99.90
24146;DHT22;12308;50.948;4.706;2022-09-24T17:26:02;15.60;99.90
24146;DHT22;12308;50.948;4.706;2022-09-24T17:28:34;15.50;99.90
24146;DHT22;12308;50.948;4.706;2022-09-24T17:31:00;15.50;99.90
24146;DHT22;12308;50.948;4.706;2022-09-24T17:33:27;15.50;99.90
24146;DHT22;12308;50.948;4.706;2022-09-24T17:36:00;15.40;99.90
24146;DHT22;12308;50.948;4.706;2022-09-24T17:38:29;15.40;99.90
24146;DHT22;12308;50.948;4.706;2022-09-24T17:40:55;15.30;99.90
24146;DHT22;12308;50.948;4.706;2022-09-24T17:43:21;15.10;99.90
24146;DHT22;12308;50.948;4.706;2022-09-24T17:45:59;15.10;99.90
24146;DHT22;12308;50.948;4.706;2022-09-24T17:48:28;15.10;99.90
24146;DHT22;12308;50.948;4.706;2022-09-24T17:50:55;15.10;99.90
24146;DHT22;12308;50.948;4.706;2022-09-24T17:53:22;15.20;99.90